createdAt,value
2023-04-16T00:00:00.765Z,57.11
2023-04-16T00:02:03.038Z,58.78
2023-04-16T00:03:57.217Z,61.20
2023-04-16T00:05:39.018Z,63.53
2023-04-16T00:07:18.097Z,64.70
2023-04-16T00:08:52.766Z,62.88
2023-04-16T00:10:26.196Z,59.66
2023-04-16T00:12:11.134Z,57.36
2023-04-16T00:13:33.121Z,57.41
2023-04-16T00:15:04.712Z,58.94
2023-04-16T00:16:45.655Z,60.73
2023-04-16T00:18:21.444Z,62.86
2023-04-16T00:19:54.481Z,64.81
2023-04-16T00:21:39.746Z,63.38
2023-04-16T00:23:25.589Z,60.58
2023-04-16T00:25:19.126Z,57.41
2023-04-16T00:27:04.050Z,57.34
2023-04-16T00:28:40.330Z,59.39
2023-04-16T00:30:26.796Z,61.28
2023-04-16T00:32:07.575Z,63.02
2023-04-16T00:33:42.912Z,64.83
2023-04-16T00:35:27.376Z,63.01
2023-04-16T00:36:49.588Z,60.36
2023-04-16T00:38:35.298Z,57.85
2023-04-16T00:40:10.962Z,57.21
2023-04-16T00:41:56.139Z,58.73
2023-04-16T00:43:41.148Z,60.94
2023-04-16T00:45:22.125Z,63.11
2023-04-16T00:47:17.097Z,64.55
2023-04-16T00:49:02.195Z,62.29
2023-04-16T00:50:47.826Z,59.23
2023-04-16T00:52:28.656Z,56.80
2023-04-16T00:54:10.744Z,57.55
2023-04-16T00:55:44.540Z,59.71
2023-04-16T00:57:27.226Z,61.20
2023-04-16T00:58:51.206Z,63.14
2023-04-16T01:00:43.628Z,65.02
2023-04-16T01:02:29.069Z,62.77
2023-04-16T01:04:01.677Z,59.70
2023-04-16T01:05:35.539Z,56.96
2023-04-16T01:07:16.148Z,57.25
2023-04-16T01:09:01.678Z,59.20
2023-04-16T01:10:34.822Z,61.34
2023-04-16T01:12:24.696Z,63.07
2023-04-16T01:13:48.089Z,64.74
2023-04-16T01:15:33.069Z,63.02
2023-04-16T01:17:20.538Z,60.13
2023-04-16T01:18:48.381Z,57.67
2023-04-16T01:20:09.951Z,57.00
2023-04-16T01:21:39.322Z,58.23
2023-04-16T01:23:24.326Z,60.11
2023-04-16T01:25:17.740Z,61.99
2023-04-16T01:27:03.172Z,64.52
2023-04-16T01:28:49.036Z,63.78
2023-04-16T01:30:34.389Z,60.68
2023-04-16T01:32:26.415Z,57.72
2023-04-16T01:34:02.322Z,57.06
2023-04-16T01:35:53.177Z,58.72
2023-04-16T01:37:38.643Z,61.09
2023-04-16T01:39:19.394Z,62.80
2023-04-16T01:41:04.645Z,64.89
2023-04-16T01:42:46.052Z,62.90
2023-04-16T01:44:30.932Z,60.21
2023-04-16T01:46:25.031Z,57.43
2023-04-16T01:48:02.206Z,57.50
2023-04-16T01:49:36.178Z,58.95
2023-04-16T01:51:00.679Z,60.86
2023-04-16T01:52:41.783Z,62.97
2023-04-16T01:54:04.298Z,64.68
2023-04-16T01:55:39.904Z,63.37
2023-04-16T01:57:14.253Z,60.66
2023-04-16T01:58:49.862Z,58.57
2023-04-16T02:00:21.038Z,56.86
2023-04-16T02:01:43.749Z,57.56
2023-04-16T02:03:06.130Z,59.00
2023-04-16T02:04:34.182Z,60.53
2023-04-16T02:06:24.169Z,62.46
2023-04-16T02:07:53.873Z,64.58
2023-04-16T02:09:39.022Z,63.14
2023-04-16T02:11:02.526Z,60.52
2023-04-16T02:12:39.676Z,57.74
2023-04-16T02:14:25.545Z,57.07
2023-04-16T02:16:04.514Z,58.62
2023-04-16T02:18:07.996Z,60.79
2023-04-16T02:19:54.288Z,63.28
2023-04-16T02:21:43.870Z,64.96
2023-04-16T02:23:27.088Z,62.91
2023-04-16T02:24:53.156Z,60.09
2023-04-16T02:26:24.339Z,57.60
2023-04-16T02:27:58.478Z,56.83
2023-04-16T02:29:49.442Z,58.68
2023-04-16T02:31:23.717Z,60.49
2023-04-16T02:33:04.871Z,63.06
2023-04-16T02:34:27.671Z,64.41
2023-04-16T02:36:13.105Z,63.27
2023-04-16T02:37:57.724Z,60.59
2023-04-16T02:39:42.912Z,57.52
2023-04-16T02:41:23.379Z,57.22
2023-04-16T02:42:57.850Z,58.85
2023-04-16T02:44:34.380Z,60.81
2023-04-16T02:46:04.468Z,62.38
2023-04-16T02:47:38.433Z,64.87
2023-04-16T02:49:23.943Z,63.95
2023-04-16T02:50:50.950Z,61.28
2023-04-16T02:52:27.229Z,58.75
2023-04-16T02:54:20.104Z,57.07
2023-04-16T02:55:54.294Z,58.61
2023-04-16T02:57:28.077Z,60.54
2023-04-16T02:59:04.354Z,62.01
2023-04-16T03:00:50.145Z,64.18
2023-04-16T03:02:14.551Z,64.06
2023-04-16T03:04:07.337Z,61.87
2023-04-16T03:05:56.164Z,58.82
2023-04-16T03:07:41.461Z,57.23
2023-04-16T03:09:15.182Z,58.97
2023-04-16T03:10:48.711Z,60.28
2023-04-16T03:12:24.645Z,62.20
2023-04-16T03:14:01.012Z,64.59
2023-04-16T03:15:42.297Z,64.61
2023-04-16T03:17:20.432Z,61.92
2023-04-16T03:18:45.153Z,59.20
2023-04-16T03:20:11.545Z,57.14
2023-04-16T03:22:02.242Z,57.57
2023-04-16T03:23:51.228Z,59.80
2023-04-16T03:25:16.777Z,61.70
2023-04-16T03:27:02.896Z,63.88
2023-04-16T03:28:36.211Z,65.01
2023-04-16T03:30:20.587Z,62.72
2023-04-16T03:32:02.236Z,59.82
2023-04-16T03:33:34.273Z,57.18
2023-04-16T03:35:24.254Z,57.31
2023-04-16T03:37:09.712Z,59.34
2023-04-16T03:38:43.947Z,61.56
2023-04-16T03:40:29.366Z,63.88
2023-04-16T03:42:03.068Z,65.00
2023-04-16T03:43:39.468Z,62.29
2023-04-16T03:45:16.568Z,59.75
2023-04-16T03:46:57.735Z,57.40
2023-04-16T03:48:31.426Z,58.04
2023-04-16T03:50:16.404Z,59.63
2023-04-16T03:51:50.329Z,61.53
2023-04-16T03:53:23.774Z,63.34
2023-04-16T03:55:14.362Z,64.40
2023-04-16T03:57:02.130Z,61.63
2023-04-16T03:58:38.781Z,58.55
2023-04-16T04:00:14.685Z,56.89
2023-04-16T04:01:36.544Z,57.45
2023-04-16T04:03:22.760Z,59.23
2023-04-16T04:04:57.816Z,61.13
2023-04-16T04:06:33.747Z,63.05
2023-04-16T04:07:58.615Z,64.75
2023-04-16T04:09:43.878Z,63.53
2023-04-16T04:11:24.494Z,60.64
2023-04-16T04:13:10.929Z,57.53
2023-04-16T04:14:53.061Z,56.78
2023-04-16T04:16:28.502Z,58.39
2023-04-16T04:18:13.190Z,60.56
2023-04-16T04:21:35.704Z,64.69
2023-04-16T04:23:23.693Z,62.96
2023-04-16T04:25:10.188Z,59.88
2023-04-16T04:27:02.729Z,57.32
2023-04-16T04:28:54.724Z,57.58
2023-04-16T04:30:40.183Z,59.87
2023-04-16T04:32:25.449Z,62.28
2023-04-16T04:33:55.755Z,64.50
2023-04-16T04:35:29.673Z,63.82
2023-04-16T04:37:04.016Z,61.18
2023-04-16T04:38:38.012Z,58.57
2023-04-16T04:40:22.962Z,56.76
2023-04-16T04:41:59.754Z,58.03
2023-04-16T04:43:34.563Z,59.87
2023-04-16T04:45:19.727Z,62.26
2023-04-16T04:46:44.613Z,64.38
2023-04-16T04:48:32.723Z,63.74
2023-04-16T04:50:06.592Z,61.02
2023-04-16T04:51:41.180Z,58.02
2023-04-16T04:53:23.240Z,57.04
2023-04-16T04:54:47.735Z,58.47
2023-04-16T04:56:21.695Z,60.21
2023-04-16T04:57:58.043Z,61.92
2023-04-16T04:59:32.328Z,64.52
2023-04-16T05:01:05.986Z,64.27
2023-04-16T05:02:39.641Z,62.08
2023-04-16T05:04:04.564Z,59.26
2023-04-16T05:05:38.216Z,57.25
2023-04-16T05:07:19.272Z,57.52
2023-04-16T05:08:55.331Z,59.53
2023-04-16T05:10:30.272Z,61.56
2023-04-16T05:12:17.600Z,63.48
2023-04-16T05:13:53.892Z,63.91
2023-04-16T05:15:28.116Z,61.72
2023-04-16T05:17:14.358Z,58.61
2023-04-16T05:19:00.722Z,56.40
2023-04-16T05:20:38.027Z,57.70
2023-04-16T05:22:23.126Z,59.79
2023-04-16T05:23:45.387Z,61.95
2023-04-16T05:25:31.365Z,63.96
2023-04-16T05:27:04.465Z,62.96
2023-04-16T05:28:38.554Z,60.45
2023-04-16T05:30:19.148Z,57.55
2023-04-16T05:31:55.516Z,56.50
2023-04-16T05:33:40.961Z,57.83
2023-04-16T05:35:17.208Z,60.23
2023-04-16T05:36:40.487Z,61.77
2023-04-16T05:38:21.100Z,63.81
2023-04-16T05:40:09.183Z,64.36
2023-04-16T05:41:43.002Z,61.62
2023-04-16T05:43:28.688Z,58.33
2023-04-16T05:44:53.544Z,56.33
2023-04-16T05:46:39.078Z,57.13
2023-04-16T05:48:15.326Z,58.81
2023-04-16T05:50:01.148Z,60.65
2023-04-16T05:51:25.448Z,62.15
2023-04-16T05:52:59.208Z,64.24
2023-04-16T05:54:52.898Z,64.39
2023-04-16T05:56:33.801Z,60.77
2023-04-16T05:58:05.876Z,57.24
2023-04-16T06:00:00.109Z,57.15
2023-04-16T06:01:35.498Z,58.36
2023-04-16T06:02:57.495Z,59.73
2023-04-16T06:04:38.567Z,61.64
2023-04-16T06:06:15.490Z,63.02
2023-04-16T06:08:04.545Z,64.23
2023-04-16T06:09:37.948Z,61.94
2023-04-16T06:11:13.522Z,59.54
2023-04-16T06:12:50.761Z,56.74
2023-04-16T06:14:26.295Z,57.14
2023-04-16T06:16:03.574Z,58.53
2023-04-16T06:17:49.060Z,60.81
2023-04-16T06:19:22.870Z,62.60
2023-04-16T06:20:56.351Z,64.07
2023-04-16T06:22:29.807Z,62.71
2023-04-16T06:24:04.084Z,61.06
2023-04-16T06:25:30.116Z,58.00
2023-04-16T06:27:10.971Z,55.99
2023-04-16T06:28:52.441Z,55.95
2023-04-16T06:30:25.628Z,58.09
2023-04-16T06:32:07.032Z,59.87
2023-04-16T06:33:43.735Z,61.23
2023-04-16T06:35:24.934Z,62.89
2023-04-16T06:37:20.142Z,64.40
2023-04-16T06:39:01.493Z,61.87
2023-04-16T06:40:23.524Z,58.97
2023-04-16T06:42:04.566Z,56.89
2023-04-16T06:43:49.785Z,57.30
2023-04-16T06:45:34.911Z,59.41
2023-04-16T06:47:14.839Z,60.75
2023-04-16T06:48:53.106Z,62.46
2023-04-16T06:50:27.226Z,64.08
2023-04-16T06:52:12.866Z,61.94
2023-04-16T06:53:48.006Z,59.22
2023-04-16T06:55:21.646Z,56.03
2023-04-16T06:56:55.371Z,56.20
2023-04-16T06:58:29.304Z,58.07
2023-04-16T07:00:02.584Z,60.28
2023-04-16T07:01:38.596Z,61.28
2023-04-16T07:03:12.530Z,62.41
2023-04-16T07:05:07.885Z,64.49
2023-04-16T07:07:01.542Z,62.78
2023-04-16T07:08:57.108Z,59.63
2023-04-16T07:10:38.602Z,56.44
2023-04-16T07:12:12.301Z,56.65
2023-04-16T07:14:06.725Z,58.43
2023-04-16T07:15:53.212Z,60.25
2023-04-16T07:17:26.419Z,61.81
2023-04-16T07:19:02.505Z,63.18
2023-04-16T07:20:36.217Z,64.32
2023-04-16T07:22:10.232Z,61.59
2023-04-16T07:23:52.234Z,59.36
2023-04-16T07:25:21.447Z,56.55
2023-04-16T07:27:03.771Z,56.48
2023-04-16T07:28:37.316Z,56.95
2023-04-16T07:30:09.780Z,58.98
2023-04-16T07:31:43.636Z,59.97
2023-04-16T07:33:16.724Z,61.75
2023-04-16T07:34:57.891Z,62.89
2023-04-16T07:36:21.727Z,65.09
2023-04-16T07:37:58.005Z,63.70
2023-04-16T07:39:51.827Z,59.77
2023-04-16T07:41:13.413Z,56.90
2023-04-16T07:42:47.450Z,56.41
2023-04-16T07:44:27.851Z,58.56
2023-04-16T07:46:00.490Z,60.45
2023-04-16T07:47:41.847Z,60.88
2023-04-16T07:49:22.353Z,62.04
2023-04-16T07:51:00.495Z,63.55
2023-04-16T07:52:45.628Z,63.44
2023-04-16T07:54:21.410Z,61.73
2023-04-16T07:55:57.114Z,58.69
2023-04-16T07:57:44.474Z,56.41
2023-04-16T07:59:23.601Z,57.28
2023-04-16T08:00:58.339Z,59.04
2023-04-16T08:02:20.506Z,60.31
2023-04-16T08:03:43.275Z,61.33
2023-04-16T08:05:07.918Z,62.10
2023-04-16T08:06:32.472Z,64.09
2023-04-16T08:08:13.322Z,62.60
2023-04-16T08:12:01.492Z,55.73
2023-04-16T08:13:46.889Z,55.97
2023-04-16T08:15:08.562Z,57.40
2023-04-16T08:16:42.563Z,58.53
2023-04-16T08:18:16.234Z,60.42
2023-04-16T08:20:06.130Z,61.14
2023-04-16T08:21:51.774Z,62.69
2023-04-16T08:23:36.818Z,63.92
2023-04-16T08:25:01.992Z,61.29
2023-04-16T08:26:50.039Z,57.63
2023-04-16T08:28:25.484Z,55.88
2023-04-16T08:29:49.899Z,56.42
2023-04-16T08:31:25.641Z,57.50
2023-04-16T08:33:10.706Z,58.87
2023-04-16T08:34:44.679Z,60.99
2023-04-16T08:36:29.727Z,61.76
2023-04-16T08:37:54.270Z,63.72
2023-04-16T08:39:25.534Z,63.59
2023-04-16T08:41:20.157Z,61.33
2023-04-16T08:42:44.511Z,57.82
2023-04-16T08:44:13.765Z,56.39
2023-04-16T08:46:00.458Z,57.02
2023-04-16T08:47:36.423Z,57.60
2023-04-16T08:49:00.764Z,59.20
2023-04-16T08:50:35.054Z,60.58
2023-04-16T08:52:11.241Z,61.70
2023-04-16T08:54:05.190Z,63.19
2023-04-16T08:55:36.981Z,61.51
2023-04-16T08:57:17.714Z,59.08
2023-04-16T08:59:11.509Z,56.78
2023-04-16T09:00:46.385Z,56.47
2023-04-16T09:02:19.882Z,56.98
2023-04-16T09:04:14.280Z,59.03
2023-04-16T09:06:09.156Z,59.18
2023-04-16T09:07:56.089Z,60.42
2023-04-16T09:09:46.338Z,62.64
2023-04-16T09:11:31.453Z,64.07
2023-04-16T09:13:16.478Z,61.84
2023-04-16T09:15:02.911Z,57.59
2023-04-16T09:16:36.645Z,55.49
2023-04-16T09:18:21.339Z,55.89
2023-04-16T09:19:57.312Z,56.38
2023-04-16T09:21:50.738Z,58.52
2023-04-16T09:23:26.408Z,59.07
2023-04-16T09:25:07.147Z,59.29
2023-04-16T09:26:53.220Z,60.51
2023-04-16T09:28:38.163Z,61.43
2023-04-16T09:30:23.253Z,61.75
2023-04-16T09:32:18.261Z,63.36
2023-04-16T09:33:55.822Z,63.24
2023-04-16T09:35:17.347Z,60.46
2023-04-16T09:36:53.693Z,56.78
2023-04-16T09:38:38.640Z,54.85
2023-04-16T09:40:21.065Z,56.03
2023-04-16T09:41:55.264Z,56.00
2023-04-16T09:43:39.827Z,58.58
2023-04-16T09:45:14.166Z,59.48
2023-04-16T09:46:55.025Z,60.05
2023-04-16T09:48:30.601Z,60.91
2023-04-16T09:50:04.534Z,60.79
2023-04-16T09:51:27.045Z,62.07
2023-04-16T09:53:01.048Z,64.22
2023-04-16T09:54:46.668Z,63.02
2023-04-16T09:56:22.152Z,59.93
2023-04-16T09:58:01.281Z,56.17
2023-04-16T09:59:34.205Z,53.90
2023-04-16T10:01:18.998Z,53.47
2023-04-16T10:03:04.744Z,54.76
2023-04-16T10:04:52.420Z,56.97
2023-04-16T10:06:27.183Z,56.29
2023-04-16T10:08:12.922Z,57.75
2023-04-16T10:10:01.751Z,58.68
2023-04-16T10:11:35.124Z,58.08
2023-04-16T10:13:20.098Z,59.81
2023-04-16T10:14:44.801Z,59.67
2023-04-16T10:16:19.325Z,59.96
2023-04-16T10:17:55.159Z,61.22
2023-04-16T10:19:40.079Z,60.49
2023-04-16T10:21:24.989Z,60.74
2023-04-16T10:22:58.655Z,63.73
2023-04-16T10:24:32.274Z,62.09
2023-04-16T10:26:08.075Z,59.17
2023-04-16T10:27:43.432Z,55.53
2023-04-16T10:29:21.380Z,55.01
2023-04-16T10:30:55.309Z,54.26
2023-04-16T10:32:28.722Z,55.10
2023-04-16T10:34:06.506Z,54.79
2023-04-16T10:36:04.756Z,56.83
2023-04-16T10:37:52.359Z,56.89
2023-04-16T10:39:37.626Z,56.87
2023-04-16T10:41:02.016Z,57.76
2023-04-16T10:42:35.056Z,58.85
2023-04-16T10:44:19.251Z,58.07
2023-04-16T10:46:04.800Z,57.16
2023-04-16T10:47:45.595Z,56.88
2023-04-16T10:49:19.106Z,57.08
2023-04-16T10:51:00.066Z,58.58
2023-04-16T10:52:45.141Z,60.18
2023-04-16T10:54:29.741Z,57.74
2023-04-16T10:56:23.377Z,59.22
2023-04-16T10:57:50.161Z,61.08
2023-04-16T10:59:18.897Z,61.97
2023-04-16T11:01:06.077Z,61.41
2023-04-16T11:02:39.701Z,61.22
2023-04-16T11:04:08.712Z,60.48
2023-04-16T11:06:02.731Z,59.05
2023-04-16T11:07:36.094Z,61.60
2023-04-16T11:09:21.065Z,60.72
2023-04-16T11:10:57.073Z,58.88
2023-04-16T11:12:32.638Z,57.22
2023-04-16T11:14:14.921Z,55.31
2023-04-16T11:15:58.953Z,56.05
2023-04-16T11:17:31.706Z,59.30
2023-04-16T11:19:05.206Z,57.01
2023-04-16T11:20:34.613Z,56.94
2023-04-16T11:22:06.403Z,55.43
2023-04-16T11:23:39.520Z,56.74
2023-04-16T11:25:13.033Z,59.80
2023-04-16T11:26:58.047Z,57.45
2023-04-16T11:28:21.998Z,54.62
2023-04-16T11:29:55.758Z,55.39
2023-04-16T11:31:40.962Z,57.13
2023-04-16T11:33:16.485Z,57.86
2023-04-16T11:34:48.014Z,55.93
2023-04-16T11:36:26.152Z,55.92
2023-04-16T11:37:49.698Z,56.82
2023-04-16T11:39:11.309Z,56.19
2023-04-16T11:40:56.975Z,56.42
2023-04-16T11:42:42.438Z,55.88
2023-04-16T11:44:27.880Z,55.64
2023-04-16T11:48:03.873Z,57.16
2023-04-16T11:49:50.081Z,55.89
2023-04-16T11:51:24.066Z,53.77
2023-04-16T11:52:57.950Z,55.64
2023-04-16T11:54:48.292Z,54.30
2023-04-16T11:56:32.926Z,53.76
2023-04-16T11:58:20.137Z,54.12
2023-04-16T12:00:07.433Z,55.12
2023-04-16T12:01:56.139Z,55.72
2023-04-16T12:03:41.601Z,55.88
2023-04-16T12:05:17.519Z,55.61
2023-04-16T12:06:53.600Z,55.44
2023-04-16T12:08:26.713Z,55.83
2023-04-16T12:09:53.375Z,55.65
2023-04-16T12:11:34.150Z,55.94
2023-04-16T12:13:15.641Z,56.17
2023-04-16T12:14:49.866Z,57.52
2023-04-16T12:16:26.197Z,58.19
2023-04-16T12:18:02.590Z,57.59
2023-04-16T12:19:35.914Z,57.72
2023-04-16T12:21:11.640Z,57.36
2023-04-16T12:22:57.068Z,57.25
2023-04-16T12:24:38.053Z,56.67
2023-04-16T12:26:19.691Z,57.35
2023-04-16T12:28:08.009Z,57.62
2023-04-16T12:29:41.382Z,58.39
2023-04-16T12:31:14.952Z,59.50
2023-04-16T12:32:44.858Z,58.62
2023-04-16T12:34:20.186Z,59.50
2023-04-16T12:36:14.064Z,60.99
2023-04-16T12:37:36.128Z,57.87
2023-04-16T12:39:02.509Z,56.26
2023-04-16T12:40:35.831Z,56.51
2023-04-16T12:42:16.405Z,56.56
2023-04-16T12:44:00.705Z,55.56
2023-04-16T12:45:24.803Z,56.48
2023-04-16T12:47:05.774Z,55.35
2023-04-16T12:48:50.776Z,54.31
2023-04-16T12:50:35.757Z,54.68
2023-04-16T12:52:16.240Z,53.87
2023-04-16T12:54:01.856Z,53.48
2023-04-16T12:55:48.440Z,53.37
2023-04-16T12:57:33.328Z,52.77
2023-04-16T12:59:27.216Z,48.68
2023-04-16T13:01:03.262Z,49.43
2023-04-16T13:02:32.498Z,49.72
2023-04-16T13:04:24.262Z,49.54
2023-04-16T13:06:06.974Z,48.53
2023-04-16T13:07:39.930Z,47.21
2023-04-16T13:09:13.365Z,47.04
2023-04-16T13:10:57.485Z,45.35
2023-04-16T13:12:42.869Z,45.19
2023-04-16T13:14:27.833Z,44.58
2023-04-16T13:16:22.196Z,45.96
2023-04-16T13:18:07.721Z,46.64
2023-04-16T13:19:37.272Z,46.31
2023-04-16T13:21:13.150Z,46.09
2023-04-16T13:22:58.661Z,47.74
2023-04-16T13:24:42.255Z,46.51
2023-04-16T13:26:17.945Z,45.41
2023-04-16T13:28:03.223Z,45.79
2023-04-16T13:29:36.633Z,45.11
2023-04-16T13:31:21.974Z,44.24
2023-04-16T13:33:07.554Z,45.45
2023-04-16T13:34:52.261Z,44.16
2023-04-16T13:36:37.671Z,43.96
2023-04-16T13:38:13.450Z,43.00
2023-04-16T13:39:57.458Z,43.17
2023-04-16T13:41:37.469Z,44.23
2023-04-16T13:43:22.208Z,44.42
2023-04-16T13:44:55.820Z,43.92
2023-04-16T13:46:36.747Z,43.79
2023-04-16T13:48:21.650Z,44.81
2023-04-16T13:50:07.106Z,45.47
2023-04-16T13:52:00.589Z,46.16
2023-04-16T13:53:33.974Z,46.62
2023-04-16T13:55:20.716Z,47.23
2023-04-16T13:56:50.546Z,48.41
2023-04-16T13:58:31.176Z,49.29
2023-04-16T14:00:26.086Z,50.45
2023-04-16T14:02:13.711Z,51.20
2023-04-16T14:04:05.661Z,51.53
2023-04-16T14:05:41.492Z,52.92
2023-04-16T14:07:10.520Z,54.55
2023-04-16T14:08:44.472Z,54.53
2023-04-16T14:10:17.436Z,54.00
2023-04-16T14:12:11.240Z,54.59
2023-04-16T14:13:56.711Z,55.50
2023-04-16T14:15:22.332Z,55.85
2023-04-16T14:17:07.474Z,56.69
2023-04-16T14:18:48.297Z,57.13
2023-04-16T14:20:33.362Z,57.33
2023-04-16T14:22:18.248Z,56.40
2023-04-16T14:23:52.161Z,56.30
2023-04-16T14:25:36.896Z,57.35
2023-04-16T14:27:08.666Z,58.07
2023-04-16T14:28:53.881Z,56.31
2023-04-16T14:30:26.979Z,55.45
2023-04-16T14:32:04.058Z,55.53
2023-04-16T14:33:37.342Z,55.08
2023-04-16T14:35:22.007Z,55.15
2023-04-16T14:36:56.112Z,53.72
2023-04-16T14:38:31.666Z,52.08
2023-04-16T14:40:17.735Z,52.02
2023-04-16T14:41:59.673Z,51.53
2023-04-16T14:43:46.361Z,51.36
2023-04-16T14:45:19.974Z,50.97
2023-04-16T14:46:53.780Z,51.44
2023-04-16T14:48:38.409Z,51.73
2023-04-16T14:50:12.056Z,52.01
2023-04-16T14:51:47.782Z,52.33
2023-04-16T14:53:28.563Z,52.78
2023-04-16T14:55:10.800Z,53.01
2023-04-16T14:57:04.450Z,53.26
2023-04-16T14:58:57.370Z,53.27
2023-04-16T15:00:42.128Z,54.01
2023-04-16T15:02:17.653Z,55.26
2023-04-16T15:04:11.443Z,55.82
2023-04-16T15:05:56.496Z,56.68
2023-04-16T15:07:31.903Z,56.74
2023-04-16T15:08:54.281Z,57.41
2023-04-16T15:10:34.925Z,56.36
2023-04-16T15:12:05.944Z,55.53
2023-04-16T15:13:39.715Z,55.05
2023-04-16T15:15:13.317Z,54.65
2023-04-16T15:16:57.376Z,54.20
2023-04-16T15:18:42.901Z,53.77
2023-04-16T15:20:26.906Z,54.33
2023-04-16T15:22:12.517Z,54.36
2023-04-16T15:23:58.390Z,53.60
2023-04-16T15:25:30.332Z,53.85
2023-04-16T15:27:02.009Z,54.01
2023-04-16T15:28:33.124Z,54.07
2023-04-16T15:30:22.247Z,54.86
2023-04-16T15:32:17.069Z,55.98
2023-04-16T15:34:11.098Z,55.28
2023-04-16T15:35:57.079Z,55.39
2023-04-16T15:37:43.276Z,55.67
2023-04-16T15:39:28.206Z,56.05
2023-04-16T15:41:01.739Z,56.79
2023-04-16T15:42:46.718Z,56.45
2023-04-16T15:44:17.336Z,56.67
2023-04-16T15:46:05.222Z,56.32
2023-04-16T15:47:58.932Z,56.96
2023-04-16T15:49:53.185Z,57.36
2023-04-16T15:51:33.792Z,57.88
2023-04-16T15:53:07.158Z,57.78
2023-04-16T15:54:40.898Z,57.58
2023-04-16T15:56:13.720Z,57.04
2023-04-16T15:57:47.676Z,56.13
2023-04-16T15:59:20.865Z,54.94
2023-04-16T16:00:58.706Z,54.79
2023-04-16T16:02:31.906Z,54.26
2023-04-16T16:04:05.686Z,54.72
2023-04-16T16:05:40.404Z,55.06
2023-04-16T16:07:22.456Z,54.71
2023-04-16T16:08:56.696Z,54.98
2023-04-16T16:10:18.892Z,54.81
2023-04-16T16:12:00.220Z,55.03
2023-04-16T16:13:53.629Z,55.84
2023-04-16T16:15:39.476Z,55.78
2023-04-16T16:17:22.435Z,55.09
2023-04-16T16:18:55.890Z,55.25
2023-04-16T16:20:40.749Z,55.26
2023-04-16T16:22:23.500Z,55.36
2023-04-16T16:24:05.608Z,54.99
2023-04-16T16:25:58.512Z,54.77
2023-04-16T16:27:43.341Z,54.29
2023-04-16T16:29:28.215Z,54.64
2023-04-16T16:31:12.980Z,54.89
2023-04-16T16:32:58.553Z,55.27
2023-04-16T16:34:51.602Z,55.95
2023-04-16T16:36:36.584Z,56.23
2023-04-16T16:38:21.613Z,56.76
2023-04-16T16:40:09.601Z,57.39
2023-04-16T16:41:54.908Z,57.63
2023-04-16T16:43:30.028Z,57.68
2023-04-16T16:45:18.122Z,57.78
2023-04-16T16:47:03.226Z,58.27
2023-04-16T16:48:32.279Z,58.47
2023-04-16T16:50:21.656Z,58.70
2023-04-16T16:52:03.637Z,59.29
2023-04-16T16:53:39.100Z,59.73
2023-04-16T16:55:10.965Z,59.77
2023-04-16T16:56:46.986Z,60.07
2023-04-16T16:58:31.557Z,60.38
2023-04-16T17:00:11.320Z,60.82
2023-04-16T17:01:44.650Z,60.74
2023-04-16T17:03:20.421Z,61.38
2023-04-16T17:05:07.845Z,61.94
2023-04-16T17:06:52.927Z,62.81
2023-04-16T17:08:28.157Z,62.49
2023-04-16T17:10:13.294Z,59.71
2023-04-16T17:11:49.566Z,55.91
2023-04-16T17:13:34.418Z,54.86
2023-04-16T17:15:21.442Z,55.66
2023-04-16T17:17:02.365Z,56.82
2023-04-16T17:18:47.389Z,57.98
2023-04-16T17:20:32.461Z,58.68
2023-04-16T17:22:14.889Z,59.53
2023-04-16T17:24:08.454Z,60.09
2023-04-16T17:25:55.465Z,60.29
2023-04-16T17:27:44.967Z,60.92
2023-04-16T17:29:26.043Z,61.61
2023-04-16T17:30:50.665Z,62.46
2023-04-16T17:32:24.097Z,63.63
2023-04-16T17:34:10.629Z,61.56
2023-04-16T17:35:32.470Z,58.15
2023-04-16T17:37:06.027Z,55.53
2023-04-16T17:38:52.347Z,55.56
2023-04-16T17:40:25.470Z,56.81
2023-04-16T17:42:01.202Z,58.25
2023-04-16T17:43:34.366Z,59.17
2023-04-16T17:44:56.434Z,60.26
2023-04-16T17:46:29.825Z,61.29
2023-04-16T17:48:10.986Z,61.97
2023-04-16T17:49:46.760Z,63.06
2023-04-16T17:51:22.073Z,63.48
2023-04-16T17:53:07.704Z,60.36
2023-04-16T17:55:01.661Z,56.63
2023-04-16T17:56:50.772Z,55.79
2023-04-16T17:58:35.719Z,57.29
2023-04-16T18:00:12.358Z,58.78
2023-04-16T18:01:46.004Z,59.91
2023-04-16T18:03:24.480Z,61.18
2023-04-16T18:04:50.112Z,62.57
2023-04-16T18:06:26.416Z,63.93
2023-04-16T18:08:07.781Z,62.38
2023-04-16T18:09:53.416Z,59.07
2023-04-16T18:11:22.162Z,56.21
2023-04-16T18:12:57.043Z,56.26
2023-04-16T18:14:31.671Z,57.39
2023-04-16T18:16:16.471Z,58.95
2023-04-16T18:17:58.175Z,60.43
2023-04-16T18:19:43.576Z,61.59
2023-04-16T18:21:17.547Z,63.17
2023-04-16T18:23:02.772Z,63.78
2023-04-16T18:24:56.322Z,61.01
2023-04-16T18:26:22.961Z,57.60
2023-04-16T18:28:18.226Z,56.28
2023-04-16T18:29:45.343Z,57.28
2023-04-16T18:31:30.752Z,58.80
2023-04-16T18:33:42.797Z,60.41
2023-04-16T18:35:17.198Z,61.76
2023-04-16T18:37:10.842Z,63.59
2023-04-16T18:39:05.431Z,63.28
2023-04-16T18:40:59.120Z,59.77
2023-04-16T18:42:43.966Z,56.38
2023-04-16T18:44:10.764Z,56.41
2023-04-16T18:45:57.016Z,57.67
2023-04-16T18:47:21.108Z,59.33
2023-04-16T18:48:45.443Z,60.43
2023-04-16T18:50:30.260Z,61.62
2023-04-16T18:52:15.522Z,63.30
2023-04-16T18:54:01.240Z,64.15
2023-04-16T18:55:36.499Z,61.10
2023-04-16T18:57:21.900Z,58.25
2023-04-16T18:59:12.442Z,56.26
2023-04-16T19:00:46.673Z,57.37
2023-04-16T19:02:18.088Z,58.70
2023-04-16T19:03:42.535Z,60.08
2023-04-16T19:05:27.702Z,61.70
2023-04-16T19:07:01.618Z,63.09
2023-04-16T19:08:47.288Z,64.16
2023-04-16T19:10:32.373Z,62.03
2023-04-16T19:12:05.863Z,58.72
2023-04-16T19:13:39.212Z,56.42
2023-04-16T19:15:20.158Z,56.68
2023-04-16T19:16:53.952Z,58.28
2023-04-16T19:18:29.204Z,59.84
2023-04-16T19:20:23.539Z,61.37
2023-04-16T19:21:49.309Z,63.01
2023-04-16T19:23:23.251Z,64.56
2023-04-16T19:24:50.009Z,62.90
2023-04-16T19:26:16.030Z,60.24
2023-04-16T19:28:01.614Z,57.11
2023-04-16T19:29:54.917Z,56.37
2023-04-16T19:31:30.552Z,57.88
2023-04-16T19:33:06.273Z,59.43
2023-04-16T19:34:40.047Z,60.84
2023-04-16T19:36:24.978Z,62.05
2023-04-16T19:37:59.839Z,63.71
2023-04-16T19:39:33.131Z,63.45
2023-04-16T19:41:18.368Z,60.53
2023-04-16T19:42:52.190Z,57.02
2023-04-16T19:44:36.943Z,56.12
2023-04-16T19:46:22.573Z,57.31
2023-04-16T19:48:16.294Z,59.11
2023-04-16T19:49:59.147Z,60.56
2023-04-16T19:51:33.754Z,62.02
2023-04-16T19:53:28.155Z,63.75
2023-04-16T19:54:50.712Z,63.00
2023-04-16T19:56:24.001Z,60.19
2023-04-16T19:58:01.868Z,57.32
2023-04-16T19:59:32.648Z,56.17
2023-04-16T20:00:56.389Z,57.04
2023-04-16T20:02:32.621Z,58.51
2023-04-16T20:04:26.360Z,60.01
2023-04-16T20:06:08.035Z,61.73
2023-04-16T20:07:42.112Z,63.21
2023-04-16T20:09:27.458Z,64.01
2023-04-16T20:11:18.299Z,61.58
2023-04-16T20:12:54.473Z,57.91
2023-04-16T20:14:27.489Z,56.11
2023-04-16T20:16:13.365Z,57.03
2023-04-16T20:17:54.544Z,58.77
2023-04-16T20:19:40.847Z,60.42
2023-04-16T20:21:14.536Z,62.11
2023-04-16T20:22:48.178Z,63.75
2023-04-16T20:24:23.781Z,63.98
2023-04-16T20:26:01.969Z,61.22
2023-04-16T20:27:35.480Z,58.28
2023-04-16T20:29:11.962Z,56.09
2023-04-16T20:31:05.649Z,57.00
2023-04-16T20:32:50.517Z,58.70
2023-04-16T20:34:31.342Z,60.41
2023-04-16T20:36:16.444Z,61.88
2023-04-16T20:37:57.510Z,63.64
2023-04-16T20:39:31.992Z,63.61
2023-04-16T20:41:20.985Z,60.90
2023-04-16T20:42:56.530Z,57.19
2023-04-16T20:44:50.030Z,56.13
2023-04-16T20:48:32.141Z,59.92
2023-04-16T20:50:05.586Z,61.41
2023-04-16T20:51:29.393Z,62.85
2023-04-16T20:55:06.226Z,61.74
2023-04-16T20:56:47.372Z,58.83
2023-04-16T20:58:11.622Z,56.41
2023-04-16T20:59:36.896Z,56.72
2023-04-16T21:01:10.453Z,58.43
2023-04-16T21:02:41.828Z,60.13
2023-04-16T21:04:26.627Z,62.03
2023-04-16T21:05:53.840Z,64.03
2023-04-16T21:07:22.701Z,63.94
2023-04-16T21:08:52.225Z,61.58
2023-04-16T21:10:20.054Z,58.92
2023-04-16T21:11:56.007Z,56.59
2023-04-16T21:13:26.829Z,56.97
2023-04-16T21:14:53.795Z,58.69
2023-04-16T21:16:39.091Z,60.41
2023-04-16T21:18:23.695Z,62.20
2023-04-16T21:20:08.699Z,64.10
2023-04-16T21:21:30.770Z,63.49
2023-04-16T21:23:04.895Z,60.76
2023-04-16T21:24:38.160Z,57.89
2023-04-16T21:26:05.218Z,56.55